Time;durP1;ratioP1;P1;durP2;ratioP2;P2;SDS_P1;SDS_P2;PMS_P1;PMS_P2;Temp;Humidity;BMP_temperature;BMP_pressure;BME280_temperature;BME280_humidity;BME280_pressure;Samples;Min_cycle;Max_cycle;Signal;HPM_P1;HPM_P2
2023/11/26 00:02:25;;;;;;;2.10;1.00;;;1.80;99.90;;;;;;5064132;28;20314;-64
2023/11/26 00:04:52;;;;;;;1.40;1.30;;;1.80;99.90;;;;;;5065041;28;20207;-63
2023/11/26 00:07:19;;;;;;;0.90;0.90;;;1.80;99.90;;;;;;5064453;28;20301;-64
2023/11/26 00:09:46;;;;;;;1.20;1.10;;;1.70;99.90;;;;;;5064698;28;21044;-64
2023/11/26 00:12:13;;;;;;;1.37;1.27;;;1.80;99.90;;;;;;5064150;28;20203;-64
2023/11/26 00:14:40;;;;;;;1.27;1.20;;;1.70;99.90;;;;;;5078666;28;20325;-65
2023/11/26 00:17:07;;;;;;;1.20;1.10;;;1.70;99.90;;;;;;5080803;28;20584;-64
2023/11/26 00:19:35;;;;;;;1.37;1.20;;;1.60;99.90;;;;;;5084634;28;20214;-64
2023/11/26 00:22:02;;;;;;;1.00;1.00;;;1.60;99.90;;;;;;5084745;28;20210;-64
2023/11/26 00:24:28;;;;;;;1.10;1.10;;;1.50;99.90;;;;;;5084032;28;20293;-64
2023/11/26 00:26:55;;;;;;;1.23;1.03;;;1.60;99.90;;;;;;5085106;28;20293;-64
2023/11/26 00:29:22;;;;;;;1.10;1.10;;;1.60;99.90;;;;;;5079311;28;21066;-64
2023/11/26 00:31:50;;;;;;;1.47;1.17;;;1.60;99.90;;;;;;5085125;28;20214;-64
2023/11/26 00:34:19;;;;;;;0.87;0.80;;;1.70;99.90;;;;;;5066548;28;20215;-64
2023/11/26 00:36:47;;;;;;;1.30;1.20;;;1.70;99.90;;;;;;5084657;28;20580;-64
2023/11/26 00:39:15;;;;;;;1.10;1.00;;;1.70;99.90;;;;;;5084822;28;20290;-64
2023/11/26 00:41:44;;;;;;;0.83;0.83;;;1.70;99.90;;;;;;5084066;28;20218;-64
2023/11/26 00:44:11;;;;;;;1.23;1.10;;;1.70;99.90;;;;;;5086123;28;20230;-64
2023/11/26 00:46:38;;;;;;;1.40;1.30;;;1.70;99.90;;;;;;5088205;28;20681;-64
2023/11/26 00:49:06;;;;;;;1.23;1.13;;;1.70;99.90;;;;;;5088683;28;20763;-64
2023/11/26 00:51:35;;;;;;;2.37;1.50;;;1.80;99.90;;;;;;5088257;28;20242;-64
2023/11/26 00:54:01;;;;;;;1.33;1.23;;;1.80;99.90;;;;;;5087994;28;20859;-64
2023/11/26 00:56:28;;;;;;;1.40;1.30;;;1.80;99.90;;;;;;5088512;28;20288;-64
2023/11/26 00:58:55;;;;;;;2.50;1.07;;;1.90;99.90;;;;;;5088580;28;20283;-64
2023/11/26 01:01:22;;;;;;;1.30;1.20;;;1.90;99.90;;;;;;5088226;28;20294;-64
2023/11/26 01:03:49;;;;;;;1.13;1.00;;;1.90;99.90;;;;;;5088340;28;20620;-64
2023/11/26 01:06:16;;;;;;;1.03;1.00;;;1.90;99.90;;;;;;5088208;28;21037;-64
2023/11/26 01:08:44;;;;;;;1.40;0.90;;;1.90;99.90;;;;;;5087934;28;20737;-64
2023/11/26 01:11:13;;;;;;;0.93;0.90;;;1.90;99.90;;;;;;5088177;28;20306;-64
2023/11/26 01:13:40;;;;;;;1.00;0.90;;;1.90;99.90;;;;;;5087902;28;20195;-64
2023/11/26 01:16:07;;;;;;;1.10;1.00;;;1.90;99.90;;;;;;5088009;28;20218;-64
2023/11/26 01:18:34;;;;;;;2.63;1.43;;;1.80;99.90;;;;;;5088136;28;20622;-64
2023/11/26 01:21:02;;;;;;;1.27;1.17;;;1.80;99.90;;;;;;5088231;28;20230;-64
2023/11/26 01:23:29;;;;;;;1.00;1.00;;;1.80;99.90;;;;;;5087295;28;20215;-64
2023/11/26 01:25:57;;;;;;;0.90;0.90;;;1.80;99.90;;;;;;5087232;28;20206;-64
2023/11/26 01:28:24;;;;;;;0.90;0.90;;;1.80;99.90;;;;;;5087790;28;20236;-64
2023/11/26 01:30:51;;;;;;;1.07;1.07;;;1.70;99.90;;;;;;5087470;28;20229;-64
2023/11/26 01:33:19;;;;;;;0.93;0.93;;;1.70;99.90;;;;;;5087781;28;20293;-64
2023/11/26 01:35:46;;;;;;;1.07;1.00;;;1.70;99.90;;;;;;5087654;28;20210;-64
2023/11/26 01:38:13;;;;;;;1.10;1.00;;;1.60;99.90;;;;;;5087227;28;20828;-64
2023/11/26 01:40:40;;;;;;;1.13;1.07;;;1.60;99.90;;;;;;5087364;28;20652;-64
2023/11/26 01:43:08;;;;;;;1.27;1.10;;;1.60;99.90;;;;;;5087760;28;20202;-64
2023/11/26 01:45:35;;;;;;;2.00;1.00;;;1.50;99.90;;;;;;5087267;28;20209;-64
2023/11/26 01:48:04;;;;;;;1.13;1.10;;;1.50;99.90;;;;;;5086935;28;20318;-64
2023/11/26 01:50:32;;;;;;;0.87;0.87;;;1.50;99.90;;;;;;5087350;28;20203;-64
2023/11/26 01:53:00;;;;;;;1.00;1.00;;;1.50;99.90;;;;;;5087282;28;20552;-64
2023/11/26 01:55:27;;;;;;;1.00;1.00;;;1.40;99.90;;;;;;5086805;28;20213;-64
2023/11/26 01:57:54;;;;;;;1.83;1.30;;;1.40;99.90;;;;;;5087193;28;20325;-64
2023/11/26 02:00:24;;;;;;;1.50;1.00;;;1.40;99.90;;;;;;5087033;28;20302;-63
2023/11/26 02:02:51;;;;;;;1.83;1.10;;;1.40;99.90;;;;;;5086698;28;20230;-63
2023/11/26 02:05:18;;;;;;;1.30;1.30;;;1.40;99.90;;;;;;5087321;28;20299;-63
2023/11/26 02:07:46;;;;;;;1.20;1.10;;;1.40;99.90;;;;;;5086868;28;20710;-63
2023/11/26 02:10:13;;;;;;;3.07;1.27;;;1.40;99.90;;;;;;5086889;28;20776;-63
2023/11/26 02:12:40;;;;;;;0.77;0.77;;;1.30;99.90;;;;;;5086511;28;20567;-63
2023/11/26 02:15:09;;;;;;;1.03;1.00;;;1.30;99.90;;;;;;5086424;28;20740;-62
2023/11/26 02:17:38;;;;;;;1.20;1.20;;;1.30;99.90;;;;;;5086409;28;20264;-62
2023/11/26 02:20:12;;;;;;;1.20;1.20;;;1.30;99.90;;;;;;5086963;28;20203;-62
2023/11/26 02:22:39;;;;;;;2.40;1.30;;;1.30;99.90;;;;;;5086512;28;20948;-65
2023/11/26 02:25:09;;;;;;;3.67;1.30;;;1.30;99.90;;;;;;5086906;28;20298;-64
2023/11/26 02:27:36;;;;;;;1.80;1.00;;;1.30;99.90;;;;;;5086564;28;20234;-64
2023/11/26 02:30:03;;;;;;;1.17;1.17;;;1.20;99.90;;;;;;5086891;28;20325;-63
2023/11/26 02:32:30;;;;;;;1.40;1.30;;;1.30;99.90;;;;;;5086474;28;20206;-63
2023/11/26 02:34:57;;;;;;;2.13;1.47;;;1.20;99.90;;;;;;5086930;28;20444;-63
2023/11/26 02:37:24;;;;;;;2.17;1.10;;;1.20;99.90;;;;;;5086395;28;20798;-63
2023/11/26 02:39:51;;;;;;;1.60;1.50;;;1.20;99.90;;;;;;5086314;28;20301;-63
2023/11/26 02:42:19;;;;;;;1.30;1.20;;;1.10;99.90;;;;;;5086433;28;20273;-63
2023/11/26 02:44:46;;;;;;;1.27;1.17;;;1.10;99.90;;;;;;5086405;28;20293;-63
2023/11/26 02:47:13;;;;;;;1.50;1.40;;;1.10;99.90;;;;;;5086320;28;20246;-63
2023/11/26 02:49:41;;;;;;;1.63;1.20;;;1.10;99.90;;;;;;5086364;28;21071;-63
2023/11/26 02:52:10;;;;;;;1.90;1.80;;;1.10;99.90;;;;;;5089656;28;20210;-63
2023/11/26 02:54:37;;;;;;;1.43;1.33;;;1.10;99.90;;;;;;5106584;28;20213;-63
2023/11/26 02:57:06;;;;;;;2.47;1.60;;;1.10;99.90;;;;;;5106822;28;20294;-63
2023/11/26 02:59:34;;;;;;;1.20;1.20;;;1.00;99.90;;;;;;5106849;28;20289;-63
2023/11/26 03:02:01;;;;;;;1.50;1.40;;;1.00;99.90;;;;;;5106334;28;20232;-63
2023/11/26 03:04:28;;;;;;;1.90;1.27;;;1.00;99.90;;;;;;5106193;28;20728;-63
2023/11/26 03:06:57;;;;;;;1.57;1.47;;;1.00;99.90;;;;;;5105388;28;20209;-63
2023/11/26 03:12:56;;;;;;;1.70;1.60;;;1.00;99.90;;;;;;5104321;28;20339;-63
2023/11/26 03:15:11;;;;;;;1.40;1.30;;;1.00;99.90;;;;;;5080520;28;20287;-63
2023/11/26 03:17:38;;;;;;;1.50;1.30;;;1.00;99.90;;;;;;5085291;28;20215;-63
2023/11/26 03:20:06;;;;;;;1.80;1.23;;;1.10;99.90;;;;;;5084967;28;20217;-63
2023/11/26 03:22:33;;;;;;;1.30;1.20;;;1.00;99.90;;;;;;5080839;28;20727;-63
2023/11/26 03:25:00;;;;;;;1.53;1.40;;;1.10;99.90;;;;;;5093753;28;20873;-63
2023/11/26 03:27:27;;;;;;;1.50;1.40;;;1.10;99.90;;;;;;5095166;28;20648;-63
2023/11/26 03:29:54;;;;;;;1.60;1.50;;;1.10;99.90;;;;;;5093524;28;20227;-63
2023/11/26 03:32:23;;;;;;;1.80;1.30;;;1.10;99.90;;;;;;5099577;28;20285;-63
2023/11/26 03:34:50;;;;;;;1.40;1.30;;;1.10;99.90;;;;;;5105739;28;20242;-63
2023/11/26 03:37:17;;;;;;;1.50;1.40;;;1.00;99.90;;;;;;5102297;28;20215;-62
2023/11/26 03:39:45;;;;;;;1.50;1.40;;;1.00;99.90;;;;;;5085249;28;20206;-63
2023/11/26 03:42:14;;;;;;;1.50;1.40;;;1.00;99.90;;;;;;5084846;28;20232;-62
2023/11/26 03:44:40;;;;;;;1.90;1.70;;;1.00;99.90;;;;;;5084894;28;20719;-63
2023/11/26 03:47:08;;;;;;;1.50;1.40;;;1.00;99.90;;;;;;5085104;28;20233;-62
2023/11/26 03:49:37;;;;;;;3.23;1.73;;;1.00;99.90;;;;;;5085118;28;20238;-63
2023/11/26 03:52:04;;;;;;;1.57;1.37;;;1.00;99.90;;;;;;5085007;28;20203;-64
2023/11/26 03:54:31;;;;;;;1.83;1.70;;;1.00;99.90;;;;;;5084540;28;20298;-64
2023/11/26 03:56:58;;;;;;;2.43;1.60;;;0.90;99.90;;;;;;5084776;28;20210;-64
2023/11/26 03:59:25;;;;;;;1.50;1.40;;;0.90;99.90;;;;;;5084780;28;20242;-64
2023/11/26 04:01:53;;;;;;;1.93;1.60;;;0.90;99.90;;;;;;5084481;28;20317;-64
2023/11/26 04:04:20;;;;;;;2.07;1.60;;;0.90;99.90;;;;;;5084785;28;20203;-63
2023/11/26 04:06:48;;;;;;;1.53;1.43;;;0.90;99.90;;;;;;5084806;28;20217;-64
2023/11/26 04:09:15;;;;;;;1.63;1.53;;;0.90;99.90;;;;;;5084414;28;20325;-63
2023/11/26 04:11:44;;;;;;;2.00;1.80;;;0.90;99.90;;;;;;5084967;28;20234;-64
2023/11/26 04:14:12;;;;;;;1.90;1.70;;;0.90;99.90;;;;;;5084394;28;20204;-64
2023/11/26 04:16:48;;;;;;;1.77;1.67;;;0.90;99.90;;;;;;5084509;28;20203;-64
2023/11/26 04:19:15;;;;;;;2.50;1.60;;;0.90;99.90;;;;;;5088262;28;20230;-64
2023/11/26 04:21:44;;;;;;;1.80;1.70;;;0.90;99.90;;;;;;5088783;28;20309;-64
2023/11/26 04:24:12;;;;;;;1.40;1.30;;;0.80;99.90;;;;;;5068801;28;20748;-64
2023/11/26 04:26:40;;;;;;;1.40;1.30;;;0.80;99.90;;;;;;5068470;28;20318;-63
2023/11/26 04:29:07;;;;;;;1.80;1.70;;;0.80;99.90;;;;;;5068791;28;20210;-63
2023/11/26 04:31:34;;;;;;;1.43;1.33;;;0.80;99.90;;;;;;5068114;28;20980;-64
2023/11/26 04:34:01;;;;;;;1.60;1.50;;;0.80;99.90;;;;;;5075577;28;20704;-64
2023/11/26 04:36:29;;;;;;;1.53;1.43;;;0.80;99.90;;;;;;5088680;28;20210;-64
2023/11/26 04:38:56;;;;;;;1.27;1.27;;;0.90;99.90;;;;;;5088485;28;20289;-64
2023/11/26 04:41:26;;;;;;;1.40;1.30;;;0.90;99.90;;;;;;5088624;28;20213;-64
2023/11/26 04:43:53;;;;;;;1.90;1.37;;;0.90;99.90;;;;;;5088411;28;20206;-63
2023/11/26 04:46:19;;;;;;;1.40;1.40;;;0.90;99.90;;;;;;5088028;28;20772;-63
2023/11/26 04:48:46;;;;;;;1.73;1.63;;;0.90;99.90;;;;;;5088128;28;20313;-64
2023/11/26 04:51:14;;;;;;;1.37;1.27;;;0.90;99.90;;;;;;5088533;28;20234;-63
2023/11/26 04:53:41;;;;;;;1.13;1.10;;;0.90;99.90;;;;;;5088053;28;20241;-63
2023/11/26 04:56:08;;;;;;;4.77;1.50;;;0.90;99.90;;;;;;5087779;28;20222;-63
2023/11/26 04:58:37;;;;;;;2.33;1.50;;;0.90;99.90;;;;;;5087873;28;20211;-63
2023/11/26 05:01:04;;;;;;;1.40;1.30;;;0.90;99.90;;;;;;5087704;28;20233;-63
2023/11/26 05:03:31;;;;;;;1.40;1.30;;;0.90;99.90;;;;;;5087594;28;20839;-63
2023/11/26 05:05:57;;;;;;;1.67;1.40;;;0.90;99.90;;;;;;5088049;28;20669;-63
2023/11/26 05:08:24;;;;;;;1.43;1.30;;;0.90;99.90;;;;;;5088089;28;20243;-63
2023/11/26 05:10:53;;;;;;;1.47;1.37;;;0.90;99.90;;;;;;5087852;28;20234;-63
2023/11/26 05:13:20;;;;;;;1.93;1.37;;;0.90;99.90;;;;;;5087679;28;20206;-63
2023/11/26 05:15:48;;;;;;;1.30;1.20;;;0.90;99.90;;;;;;5087381;28;20297;-63
2023/11/26 05:18:15;;;;;;;1.47;1.20;;;0.90;99.90;;;;;;5087942;28;20293;-63
2023/11/26 05:20:43;;;;;;;1.50;1.40;;;0.90;99.90;;;;;;5087846;28;20288;-63
2023/11/26 05:23:10;;;;;;;1.57;1.47;;;0.90;99.90;;;;;;5076014;28;20221;-63
2023/11/26 05:25:37;;;;;;;1.93;1.47;;;1.00;99.90;;;;;;5067492;28;20298;-64
2023/11/26 05:28:04;;;;;;;1.30;1.20;;;0.90;99.90;;;;;;5067533;28;20330;-63
2023/11/26 05:30:31;;;;;;;1.87;1.47;;;1.00;99.90;;;;;;5074987;28;20230;-63
2023/11/26 05:32:59;;;;;;;1.30;1.20;;;0.90;99.90;;;;;;5087416;28;20217;-63
2023/11/26 05:35:28;;;;;;;1.60;1.30;;;1.00;99.90;;;;;;5087388;28;20756;-63
2023/11/26 05:37:55;;;;;;;1.27;1.17;;;1.00;99.90;;;;;;5087524;28;20231;-63
2023/11/26 05:40:22;;;;;;;1.30;1.20;;;0.90;99.90;;;;;;5086946;28;20207;-63
2023/11/26 05:42:50;;;;;;;1.10;1.10;;;1.00;99.90;;;;;;5087337;28;20206;-63
2023/11/26 05:45:17;;;;;;;1.27;1.17;;;0.90;99.90;;;;;;5087678;28;20206;-63
2023/11/26 05:47:44;;;;;;;1.73;1.33;;;1.00;99.90;;;;;;5087025;28;21001;-63
2023/11/26 05:50:12;;;;;;;2.37;1.37;;;0.90;99.90;;;;;;5086748;28;20764;-63
2023/11/26 05:52:39;;;;;;;1.93;1.50;;;0.90;99.90;;;;;;5086533;28;20209;-63
2023/11/26 05:55:07;;;;;;;1.63;1.53;;;0.90;99.90;;;;;;5087294;28;20314;-63
2023/11/26 05:57:34;;;;;;;1.73;1.63;;;1.00;99.90;;;;;;5087241;28;20579;-63
2023/11/26 06:00:01;;;;;;;1.73;1.63;;;1.00;99.90;;;;;;5087124;28;20669;-63
2023/11/26 06:02:28;;;;;;;1.70;1.60;;;1.10;99.90;;;;;;5086204;28;20596;-63
2023/11/26 06:04:55;;;;;;;1.83;1.73;;;0.90;99.90;;;;;;5086652;28;20301;-64
2023/11/26 06:07:23;;;;;;;2.23;2.03;;;0.90;99.90;;;;;;5086817;28;20226;-63
2023/11/26 06:09:50;;;;;;;1.83;1.73;;;0.90;99.90;;;;;;5087116;28;20223;-63
2023/11/26 06:12:17;;;;;;;6.23;5.03;;;0.70;99.90;;;;;;5086794;28;20264;-63
2023/11/26 06:14:44;;;;;;;3.50;3.30;;;0.70;99.90;;;;;;5086850;28;20211;-63
2023/11/26 06:17:11;;;;;;;2.67;2.57;;;0.70;99.90;;;;;;5086865;28;20317;-63
2023/11/26 06:19:38;;;;;;;2.00;1.90;;;0.70;99.90;;;;;;5086896;28;20238;-63
2023/11/26 06:22:05;;;;;;;2.93;2.33;;;0.70;99.90;;;;;;5086316;28;20669;-63
2023/11/26 06:24:34;;;;;;;2.00;1.90;;;0.60;99.90;;;;;;5086623;28;20217;-63
2023/11/26 06:27:01;;;;;;;3.60;2.60;;;0.60;99.90;;;;;;5086493;28;20230;-63
2023/11/26 06:29:28;;;;;;;3.67;3.37;;;0.70;99.90;;;;;;5086170;28;20289;-63
2023/11/26 06:31:54;;;;;;;3.73;3.43;;;0.70;99.90;;;;;;5086321;28;20244;-63
2023/11/26 06:34:25;;;;;;;3.30;3.00;;;0.70;99.90;;;;;;5086828;28;20301;-63
2023/11/26 06:36:54;;;;;;;2.97;2.67;;;0.70;99.90;;;;;;5086520;28;20199;-63
2023/11/26 06:39:23;;;;;;;2.10;2.00;;;0.60;99.90;;;;;;5086150;28;20206;-63
2023/11/26 06:41:52;;;;;;;1.90;1.70;;;0.70;99.90;;;;;;5086457;28;20291;-63
2023/11/26 06:44:20;;;;;;;3.13;1.50;;;0.60;99.90;;;;;;5086491;28;20302;-63
2023/11/26 06:46:48;;;;;;;1.60;1.50;;;0.50;99.90;;;;;;5086113;28;20229;-63
2023/11/26 06:49:15;;;;;;;1.70;1.60;;;0.60;99.90;;;;;;5086247;28;20649;-63
2023/11/26 06:51:43;;;;;;;1.70;1.60;;;0.50;99.90;;;;;;5086138;28;20226;-63
2023/11/26 06:54:10;;;;;;;2.30;2.20;;;0.50;99.90;;;;;;5066044;28;20211;-63
2023/11/26 06:56:37;;;;;;;1.80;1.70;;;0.50;99.90;;;;;;5065570;28;20298;-63
2023/11/26 06:59:06;;;;;;;1.70;1.60;;;0.60;99.90;;;;;;5065942;28;20211;-63
2023/11/26 07:01:32;;;;;;;2.03;1.90;;;0.60;99.90;;;;;;5065784;28;20238;-63
2023/11/26 07:03:59;;;;;;;2.97;2.00;;;0.50;99.90;;;;;;5086086;28;20213;-63
2023/11/26 07:06:26;;;;;;;2.20;2.10;;;0.50;99.90;;;;;;5085623;28;21076;-63
2023/11/26 07:08:53;;;;;;;2.50;1.90;;;0.50;99.90;;;;;;5085338;28;20242;-63
2023/11/26 07:11:23;;;;;;;2.50;1.90;;;0.40;99.90;;;;;;5085539;28;20333;-63
2023/11/26 07:13:51;;;;;;;4.37;2.00;;;0.40;99.90;;;;;;5085540;28;20238;-63
2023/11/26 07:16:20;;;;;;;1.90;1.80;;;0.40;99.90;;;;;;5085229;28;20203;-62
2023/11/26 07:18:48;;;;;;;2.20;2.00;;;0.40;99.90;;;;;;5091061;28;20214;-63
2023/11/26 07:21:15;;;;;;;1.93;1.83;;;0.40;99.90;;;;;;5097017;28;20259;-63
2023/11/26 07:23:42;;;;;;;2.13;1.90;;;0.30;99.90;;;;;;5096892;28;20206;-63
2023/11/26 07:26:13;;;;;;;1.70;1.60;;;0.30;99.90;;;;;;5098352;28;20255;-63
2023/11/26 07:28:40;;;;;;;1.90;1.80;;;0.30;99.90;;;;;;5098887;28;20286;-63
2023/11/26 07:31:13;;;;;;;1.73;1.63;;;0.40;99.90;;;;;;5099386;28;20730;-63
2023/11/26 07:33:42;;;;;;;1.97;1.80;;;0.40;99.90;;;;;;5097020;28;20531;-63
2023/11/26 07:36:12;;;;;;;2.00;1.80;;;0.50;99.90;;;;;;5097296;28;20286;-63
2023/11/26 07:38:39;;;;;;;2.30;2.10;;;0.50;99.90;;;;;;5088883;28;20195;-63
2023/11/26 07:41:08;;;;;;;2.13;2.03;;;0.50;99.90;;;;;;5091444;28;20198;-63
2023/11/26 07:43:35;;;;;;;2.10;2.00;;;0.50;99.90;;;;;;5097800;28;20225;-63
2023/11/26 07:46:02;;;;;;;3.93;2.10;;;0.40;99.90;;;;;;5101661;28;20718;-63
2023/11/26 07:48:28;;;;;;;2.20;2.10;;;0.30;99.90;;;;;;5105251;28;20676;-63
2023/11/26 07:50:57;;;;;;;2.13;2.03;;;0.10;99.90;;;;;;5105189;28;20226;-63
2023/11/26 07:53:25;;;;;;;2.43;2.13;;;0.20;99.90;;;;;;5091037;28;20309;-63
2023/11/26 07:55:54;;;;;;;2.80;2.60;;;0.20;99.90;;;;;;5084992;28;20733;-63
2023/11/26 07:58:22;;;;;;;2.07;1.97;;;0.30;99.90;;;;;;5084968;28;20202;-63
2023/11/26 08:00:49;;;;;;;2.43;2.23;;;0.30;99.90;;;;;;5084441;28;20241;-63
2023/11/26 08:03:16;;;;;;;1.90;1.80;;;0.40;99.90;;;;;;5085009;28;20675;-63
2023/11/26 08:05:47;;;;;;;3.17;1.80;;;0.50;99.90;;;;;;5084733;28;20293;-63
2023/11/26 08:08:20;;;;;;;2.00;1.90;;;0.60;99.90;;;;;;5084602;28;20231;-63
2023/11/26 08:10:48;;;;;;;2.17;2.00;;;0.70;99.90;;;;;;5084687;28;20250;-63
2023/11/26 08:13:15;;;;;;;2.30;2.10;;;0.70;99.90;;;;;;5084708;28;20252;-63
2023/11/26 08:15:42;;;;;;;2.43;1.80;;;0.80;99.90;;;;;;5084793;28;20246;-63
2023/11/26 08:18:09;;;;;;;2.30;2.10;;;0.70;99.90;;;;;;5084855;28;20210;-63
2023/11/26 08:20:37;;;;;;;2.50;2.00;;;0.80;99.90;;;;;;5068738;28;20228;-63
2023/11/26 08:23:06;;;;;;;2.50;2.30;;;1.00;99.90;;;;;;5073518;28;20215;-63
2023/11/26 08:25:36;;;;;;;2.93;1.90;;;1.10;99.90;;;;;;5064451;28;20701;-64
2023/11/26 08:28:06;;;;;;;2.10;1.77;;;1.10;99.90;;;;;;5064480;28;20191;-63
2023/11/26 08:30:39;;;;;;;1.70;1.60;;;1.10;99.90;;;;;;5063892;28;20880;-63
2023/11/26 08:33:06;;;;;;;1.90;1.80;;;1.00;99.90;;;;;;5083466;28;20211;-63
2023/11/26 08:35:34;;;;;;;2.30;1.63;;;1.10;99.90;;;;;;5084671;28;20211;-63
2023/11/26 08:38:02;;;;;;;1.93;1.83;;;1.30;99.90;;;;;;5084914;28;20239;-63
2023/11/26 08:40:33;;;;;;;2.20;1.70;;;1.30;99.90;;;;;;5083964;28;20210;-63
2023/11/26 08:43:02;;;;;;;2.20;1.60;;;1.50;99.90;;;;;;5085062;28;20566;-63
2023/11/26 08:45:29;;;;;;;1.87;1.77;;;1.60;99.90;;;;;;5083935;28;20238;-63
2023/11/26 08:47:56;;;;;;;1.87;1.77;;;1.70;99.90;;;;;;5082975;28;20284;-63
2023/11/26 08:50:23;;;;;;;2.63;1.70;;;1.70;99.90;;;;;;5090741;28;20284;-63
2023/11/26 08:52:53;;;;;;;1.80;1.70;;;1.70;99.90;;;;;;5089408;28;20207;-63
2023/11/26 08:55:20;;;;;;;1.80;1.70;;;1.70;99.90;;;;;;5091092;28;20230;-63
2023/11/26 08:57:47;;;;;;;1.83;1.73;;;1.80;99.90;;;;;;5091278;28;20211;-63
2023/11/26 09:00:17;;;;;;;2.43;1.63;;;1.90;99.90;;;;;;5092613;28;20223;-63
2023/11/26 09:02:45;;;;;;;1.20;1.20;;;2.00;99.90;;;;;;5090267;28;20225;-63
2023/11/26 09:05:12;;;;;;;1.50;1.40;;;2.00;99.90;;;;;;5085375;28;20198;-63
2023/11/26 09:07:42;;;;;;;2.53;1.50;;;1.90;99.90;;;;;;5087371;28;20238;-63
2023/11/26 09:10:10;;;;;;;1.73;1.63;;;1.90;99.90;;;;;;5087440;28;20202;-63
2023/11/26 09:12:38;;;;;;;1.67;1.57;;;2.10;99.90;;;;;;5084890;28;20242;-63
2023/11/26 09:15:07;;;;;;;1.40;1.30;;;2.20;99.90;;;;;;5087113;28;20210;-63
2023/11/26 09:17:35;;;;;;;1.13;1.13;;;2.30;99.90;;;;;;5081399;28;21054;-63
2023/11/26 09:20:03;;;;;;;2.03;1.33;;;2.20;99.90;;;;;;5077348;28;20209;-63
2023/11/26 09:22:30;;;;;;;1.40;1.30;;;2.30;99.90;;;;;;5080302;28;20302;-63
2023/11/26 09:24:57;;;;;;;2.43;1.47;;;2.40;99.90;;;;;;5082424;28;20198;-64
2023/11/26 09:27:24;;;;;;;1.13;1.00;;;2.40;99.90;;;;;;5087679;28;20201;-63
2023/11/26 09:29:52;;;;;;;3.27;1.53;;;2.40;99.90;;;;;;5079298;28;20203;-63
2023/11/26 09:32:19;;;;;;;1.13;1.13;;;2.50;99.90;;;;;;5073816;28;20247;-63
2023/11/26 09:34:52;;;;;;;1.43;1.33;;;2.40;99.90;;;;;;5087596;28;20211;-63
2023/11/26 09:37:19;;;;;;;1.27;1.17;;;2.60;99.90;;;;;;5085083;28;20187;-63
2023/11/26 09:39:46;;;;;;;1.37;1.27;;;2.70;99.90;;;;;;5082527;28;20687;-62
2023/11/26 09:42:13;;;;;;;1.07;1.07;;;2.80;99.90;;;;;;5078274;28;20195;-63
2023/11/26 09:44:44;;;;;;;1.07;0.97;;;2.80;99.90;;;;;;5075186;28;20199;-63
2023/11/26 09:47:13;;;;;;;13.40;1.33;;;2.90;99.90;;;;;;5078943;28;20387;-63
2023/11/26 09:49:40;;;;;;;1.50;1.40;;;2.70;99.90;;;;;;5067797;28;20206;-63
2023/11/26 09:52:08;;;;;;;1.70;1.20;;;2.80;99.90;;;;;;5080604;28;20736;-63
2023/11/26 09:54:35;;;;;;;1.70;1.43;;;2.80;99.90;;;;;;5085606;28;20246;-63
2023/11/26 09:57:03;;;;;;;1.40;1.30;;;2.80;99.90;;;;;;5085532;28;20207;-63
2023/11/26 09:59:31;;;;;;;1.67;1.40;;;2.90;99.90;;;;;;5085784;28;20775;-62
2023/11/26 10:01:59;;;;;;;1.13;1.13;;;3.10;99.90;;;;;;5085241;28;20211;-63
2023/11/26 10:04:26;;;;;;;1.50;1.40;;;3.20;99.90;;;;;;5084965;28;20214;-63
2023/11/26 10:06:54;;;;;;;1.80;1.50;;;3.20;99.90;;;;;;5084734;28;20211;-63
2023/11/26 10:09:23;;;;;;;1.10;1.10;;;3.30;99.90;;;;;;5084754;28;20234;-63
2023/11/26 10:11:51;;;;;;;1.40;1.30;;;3.30;99.90;;;;;;5086608;28;20789;-63
2023/11/26 10:14:20;;;;;;;1.80;1.53;;;3.20;99.90;;;;;;5085329;28;20213;-63
2023/11/26 10:16:48;;;;;;;1.50;1.30;;;3.30;99.90;;;;;;5084369;28;20297;-63
2023/11/26 10:19:25;;;;;;;1.20;1.10;;;3.30;99.90;;;;;;5085275;28;20290;-63
2023/11/26 10:21:53;;;;;;;2.90;1.30;;;3.30;99.90;;;;;;5084767;28;20252;-63
2023/11/26 10:24:22;;;;;;;1.37;1.27;;;3.50;99.90;;;;;;5085207;28;20206;-63
2023/11/26 10:26:51;;;;;;;1.70;1.37;;;3.40;99.90;;;;;;5084940;28;20299;-63
2023/11/26 10:29:20;;;;;;;1.47;1.37;;;3.70;99.90;;;;;;5085000;28;20211;-63
2023/11/26 10:32:04;;;;;;;1.60;1.50;;;3.70;99.90;;;;;;5084913;28;20730;-63
2023/11/26 10:34:33;;;;;;;1.50;1.37;;;3.70;99.90;;;;;;5084872;28;20871;-63
2023/11/26 10:37:00;;;;;;;1.20;1.10;;;3.70;99.90;;;;;;5085363;28;20210;-63
2023/11/26 10:39:30;;;;;;;1.27;1.17;;;3.80;99.90;;;;;;5084935;28;20203;-63
2023/11/26 10:41:57;;;;;;;1.20;1.20;;;3.90;99.90;;;;;;5085125;28;20287;-63
2023/11/26 10:44:24;;;;;;;1.50;1.07;;;3.80;99.90;;;;;;5084823;28;20318;-63
2023/11/26 10:46:54;;;;;;;1.53;1.00;;;3.80;99.90;;;;;;5083897;28;20203;-63
2023/11/26 10:49:28;;;;;;;1.07;1.00;;;3.60;99.90;;;;;;5084661;28;20218;-63
2023/11/26 10:52:07;;;;;;;1.30;1.20;;;3.60;99.90;;;;;;5084636;28;20223;-63
2023/11/26 10:54:44;;;;;;;1.30;1.20;;;3.70;99.90;;;;;;5084251;28;20198;-63
2023/11/26 10:57:14;;;;;;;1.53;1.20;;;3.80;99.90;;;;;;5084758;28;20266;-63
2023/11/26 10:59:47;;;;;;;1.17;1.17;;;4.00;99.90;;;;;;5084510;28;20229;-63
2023/11/26 11:02:15;;;;;;;2.27;1.13;;;3.90;99.90;;;;;;5083975;28;20191;-63
2023/11/26 11:04:47;;;;;;;1.30;1.30;;;3.80;99.90;;;;;;5084493;28;20209;-63
2023/11/26 11:07:14;;;;;;;1.23;1.23;;;3.70;99.90;;;;;;5084726;28;20361;-63
2023/11/26 11:09:52;;;;;;;1.33;1.30;;;3.60;99.90;;;;;;5084041;28;20575;-63
2023/11/26 11:12:25;;;;;;;2.17;1.20;;;3.70;99.90;;;;;;5084158;28;20226;-63
2023/11/26 11:14:54;;;;;;;1.40;1.10;;;3.60;99.90;;;;;;5083783;28;20203;-63
2023/11/26 11:17:30;;;;;;;2.03;1.33;;;3.50;99.90;;;;;;5083437;28;20210;-63
2023/11/26 11:19:57;;;;;;;1.30;1.20;;;3.50;99.90;;;;;;5084403;28;20195;-63
2023/11/26 11:22:34;;;;;;;1.10;1.10;;;3.50;99.90;;;;;;5089441;28;20297;-63
2023/11/26 11:25:10;;;;;;;1.00;1.00;;;3.40;99.90;;;;;;5104178;28;20206;-63
2023/11/26 11:27:48;;;;;;;1.20;1.20;;;3.40;99.90;;;;;;5099042;28;20256;-63
2023/11/26 11:30:48;;;;;;;1.90;1.10;;;3.50;99.90;;;;;;5084147;28;20197;-63
2023/11/26 11:33:15;;;;;;;2.17;1.53;;;3.50;99.90;;;;;;5083497;28;20250;-63
2023/11/26 11:35:45;;;;;;;1.40;1.30;;;3.70;99.90;;;;;;5081852;28;20215;-63
2023/11/26 11:38:14;;;;;;;1.43;1.30;;;3.80;99.90;;;;;;5080930;28;20206;-63
2023/11/26 11:41:08;;;;;;;1.67;1.30;;;4.10;99.90;;;;;;5086045;28;20210;-63
2023/11/26 11:43:36;;;;;;;3.50;1.40;;;4.40;99.90;;;;;;5087187;28;20214;-63
2023/11/26 11:46:42;;;;;;;1.87;1.20;;;4.70;99.90;;;;;;5081865;28;20214;-63
2023/11/26 11:49:10;;;;;;;1.63;0.87;;;4.70;99.90;;;;;;5081654;28;20214;-63
2023/11/26 11:51:40;;;;;;;1.23;1.07;;;4.70;99.90;;;;;;5087309;28;20230;-63
2023/11/26 11:54:37;;;;;;;1.10;1.10;;;4.60;99.90;;;;;;5082819;28;20505;-67
2023/11/26 11:57:12;;;;;;;0.90;0.90;;;4.50;99.90;;;;;;5078277;28;20214;-63
2023/11/26 11:59:42;;;;;;;1.10;0.80;;;4.30;99.90;;;;;;5089645;28;20264;-63
2023/11/26 12:02:10;;;;;;;0.77;0.77;;;4.20;99.90;;;;;;5091579;28;20203;-64
2023/11/26 12:04:44;;;;;;;0.83;0.70;;;4.10;99.90;;;;;;5082819;28;20210;-63
2023/11/26 12:07:11;;;;;;;0.70;0.70;;;4.00;99.90;;;;;;5083885;28;20206;-64
2023/11/26 12:09:40;;;;;;;1.50;0.93;;;4.00;99.90;;;;;;5082860;28;20286;-63
2023/11/26 12:12:09;;;;;;;0.90;0.90;;;3.90;99.90;;;;;;5082906;28;20226;-63
2023/11/26 12:14:36;;;;;;;2.23;1.17;;;3.90;99.90;;;;;;5082427;28;20203;-63
2023/11/26 12:17:09;;;;;;;1.30;0.90;;;3.90;99.90;;;;;;5082645;28;21143;-63
2023/11/26 12:19:38;;;;;;;1.20;1.00;;;3.70;99.90;;;;;;5082871;28;20353;-63
2023/11/26 12:22:05;;;;;;;1.30;1.20;;;3.80;99.90;;;;;;5071827;28;20293;-63
2023/11/26 12:24:33;;;;;;;1.23;1.13;;;3.80;99.90;;;;;;5076494;28;20687;-63
2023/11/26 12:27:00;;;;;;;1.40;1.30;;;3.80;99.90;;;;;;5082727;28;20203;-63
2023/11/26 12:29:30;;;;;;;2.47;2.00;;;3.80;99.90;;;;;;5074195;28;20283;-63
2023/11/26 12:32:00;;;;;;;2.77;1.10;;;3.70;99.90;;;;;;5071857;28;20237;-63
2023/11/26 12:34:27;;;;;;;1.30;1.20;;;3.70;99.90;;;;;;5070852;28;20285;-63
2023/11/26 12:36:54;;;;;;;1.30;1.20;;;3.70;99.90;;;;;;5082807;28;20289;-63
2023/11/26 12:39:23;;;;;;;1.47;1.37;;;3.80;99.90;;;;;;5078840;28;20209;-63
2023/11/26 12:41:50;;;;;;;2.23;1.13;;;3.70;99.90;;;;;;5084348;28;20215;-63
2023/11/26 12:44:20;;;;;;;1.10;1.10;;;3.90;99.90;;;;;;5081518;28;20203;-63
2023/11/26 12:46:48;;;;;;;2.17;1.30;;;4.00;99.90;;;;;;5086647;28;20672;-63
2023/11/26 12:49:16;;;;;;;1.60;1.50;;;4.10;99.90;;;;;;5087121;28;20229;-63
2023/11/26 12:51:44;;;;;;;1.40;1.30;;;4.20;99.90;;;;;;5086387;28;20217;-64
2023/11/26 12:54:11;;;;;;;1.50;1.40;;;4.10;99.90;;;;;;5068152;28;20218;-64
2023/11/26 12:56:39;;;;;;;1.53;1.43;;;4.10;99.90;;;;;;5067397;28;20207;-63
2023/11/26 12:59:07;;;;;;;3.27;1.50;;;4.00;99.90;;;;;;5066920;28;20234;-63
2023/11/26 13:01:35;;;;;;;1.70;1.60;;;3.90;99.90;;;;;;5084487;28;20203;-63
2023/11/26 13:04:05;;;;;;;1.60;1.50;;;3.80;99.90;;;;;;5087870;28;20571;-63
2023/11/26 13:06:32;;;;;;;4.40;1.50;;;3.70;99.90;;;;;;5087536;28;20290;-63
2023/11/26 13:09:07;;;;;;;1.80;1.40;;;3.70;99.90;;;;;;5087226;28;20246;-63